createdAt,value
2022-10-17T00:02:33.523Z,6.63
2022-10-17T00:07:36.895Z,6.30
2022-10-17T00:12:41.775Z,6.63
2022-10-17T00:17:45.460Z,7.77
2022-10-17T00:22:48.864Z,7.73
2022-10-17T00:27:53.602Z,7.63
2022-10-17T00:32:56.918Z,6.77
2022-10-17T00:38:00.359Z,8.10
2022-10-17T00:43:05.107Z,8.07
2022-10-17T00:48:10.631Z,8.40
2022-10-17T00:53:15.178Z,7.87
2022-10-17T00:58:21.279Z,8.70
2022-10-17T01:03:25.134Z,7.70
2022-10-17T01:08:28.725Z,7.83
2022-10-17T01:13:39.348Z,7.43
2022-10-17T01:18:57.329Z,7.10
2022-10-17T01:24:26.787Z,7.47
2022-10-17T01:29:54.362Z,6.90
2022-10-17T01:35:02.873Z,7.07
2022-10-17T01:40:12.024Z,5.87
2022-10-17T01:45:21.025Z,6.80
2022-10-17T01:50:32.588Z,6.37
2022-10-17T01:55:40.231Z,7.13
2022-10-17T02:00:46.858Z,5.87
2022-10-17T02:05:51.728Z,6.17
2022-10-17T02:10:59.807Z,6.07
2022-10-17T02:16:15.178Z,6.00
2022-10-17T02:21:29.960Z,6.00
2022-10-17T02:26:38.539Z,5.70
2022-10-17T02:31:47.180Z,6.30
2022-10-17T02:36:54.656Z,5.70
2022-10-17T02:42:03.025Z,5.40
2022-10-17T02:47:14.185Z,5.50
2022-10-17T02:52:27.055Z,5.20
2022-10-17T02:57:35.506Z,5.90
2022-10-17T03:02:43.059Z,4.80
2022-10-17T03:07:48.083Z,5.30
2022-10-17T03:12:51.591Z,4.90
2022-10-17T03:17:56.981Z,4.40
2022-10-17T03:23:02.055Z,5.13
2022-10-17T03:28:06.675Z,4.63
2022-10-17T03:33:10.065Z,4.63
2022-10-17T03:38:15.201Z,5.37
2022-10-17T03:43:18.621Z,4.80
2022-10-17T03:48:22.897Z,4.70
2022-10-17T03:53:28.238Z,4.50
2022-10-17T03:58:32.723Z,4.53
2022-10-17T04:03:37.126Z,5.77
2022-10-17T04:08:42.856Z,4.87
2022-10-17T04:13:55.949Z,5.03
2022-10-17T04:19:01.436Z,4.97
2022-10-17T04:24:12.704Z,5.40
2022-10-17T04:29:25.644Z,5.13
2022-10-17T04:34:33.634Z,4.90
2022-10-17T04:39:38.758Z,4.43
2022-10-17T04:44:42.762Z,4.77
2022-10-17T04:49:46.260Z,4.53
2022-10-17T04:54:53.546Z,4.63
2022-10-17T04:59:58.452Z,4.77
2022-10-17T05:05:24.991Z,29.67
2022-10-17T05:10:31.767Z,21.67
2022-10-17T05:15:36.287Z,12.70
2022-10-17T05:20:40.011Z,15.33
2022-10-17T05:25:44.970Z,8.80
2022-10-17T05:30:48.411Z,5.40
2022-10-17T05:35:52.966Z,5.60
2022-10-17T05:41:00.562Z,4.87
2022-10-17T05:46:06.675Z,4.90
2022-10-17T05:51:11.995Z,5.23
2022-10-17T05:56:20.411Z,4.90
2022-10-17T06:01:25.868Z,4.90
2022-10-17T06:06:30.068Z,4.63
2022-10-17T06:11:35.404Z,5.03
2022-10-17T06:16:39.122Z,5.13
2022-10-17T06:21:42.676Z,4.77
2022-10-17T06:26:51.285Z,4.23
2022-10-17T06:31:57.466Z,4.33
2022-10-17T06:37:02.365Z,4.03
2022-10-17T06:42:08.719Z,4.53
2022-10-17T06:47:44.459Z,4.20
2022-10-17T06:53:03.491Z,4.10
2022-10-17T06:58:23.431Z,4.33
2022-10-17T07:03:50.006Z,4.47
2022-10-17T07:08:55.722Z,4.20
2022-10-17T07:14:00.977Z,4.37
2022-10-17T07:19:04.827Z,4.30
2022-10-17T07:24:12.470Z,4.30
2022-10-17T07:29:20.632Z,3.90
2022-10-17T07:34:35.505Z,4.43
2022-10-17T07:39:40.173Z,4.40
2022-10-17T07:44:47.473Z,4.25
2022-10-17T07:49:51.541Z,5.17
2022-10-17T07:54:54.995Z,4.63
2022-10-17T08:00:00.105Z,5.07
2022-10-17T08:05:03.474Z,4.50
2022-10-17T08:15:13.761Z,4.10
2022-10-17T08:20:17.308Z,4.30
2022-10-17T08:25:20.735Z,4.23
2022-10-17T08:30:25.791Z,4.88
2022-10-17T08:35:29.375Z,4.32
2022-10-17T08:40:33.878Z,4.50
2022-10-17T08:45:46.263Z,3.72
2022-10-17T08:50:54.258Z,3.58
2022-10-17T08:55:59.293Z,3.58
2022-10-17T09:01:13.274Z,4.30
2022-10-17T09:06:24.518Z,3.42
2022-10-17T09:11:50.125Z,3.83
2022-10-17T09:17:09.932Z,3.63
2022-10-17T09:22:18.406Z,3.20
2022-10-17T09:27:25.640Z,2.83
2022-10-17T09:32:30.603Z,3.63
2022-10-17T09:37:34.358Z,2.90
2022-10-17T09:42:38.306Z,3.20
2022-10-17T09:52:55.266Z,3.50
2022-10-17T09:58:00.281Z,3.05
2022-10-17T10:03:23.410Z,2.78
2022-10-17T10:08:30.225Z,3.47
2022-10-17T10:13:35.704Z,2.85
2022-10-17T10:18:40.622Z,3.25
2022-10-17T10:23:45.363Z,2.75
2022-10-17T10:28:55.483Z,3.08
2022-10-17T10:34:03.430Z,3.58
2022-10-17T10:39:07.968Z,3.00
2022-10-17T10:44:16.249Z,3.13
2022-10-17T10:49:35.785Z,2.83
2022-10-17T10:54:43.562Z,3.25
2022-10-17T10:59:58.432Z,3.00
2022-10-17T11:05:08.196Z,2.97
2022-10-17T11:10:18.922Z,3.15
2022-10-17T11:15:27.187Z,3.00
2022-10-17T11:20:39.705Z,2.55
2022-10-17T11:25:43.396Z,2.70
2022-10-17T11:30:51.450Z,2.90
2022-10-17T11:36:02.755Z,2.90
2022-10-17T11:41:09.126Z,3.40
2022-10-17T11:46:16.690Z,3.38
2022-10-17T11:56:52.860Z,3.40
2022-10-17T12:02:01.021Z,3.70
2022-10-17T12:07:16.944Z,3.38
2022-10-17T12:12:29.256Z,4.60
2022-10-17T12:17:37.003Z,3.33
2022-10-17T12:22:48.243Z,3.45
2022-10-17T12:27:52.480Z,3.25
2022-10-17T12:33:06.593Z,3.70
2022-10-17T12:38:28.736Z,3.13
2022-10-17T12:43:53.888Z,3.70
2022-10-17T12:49:02.668Z,3.53
2022-10-17T12:54:13.657Z,3.40
2022-10-17T12:59:19.577Z,2.45
2022-10-17T13:04:24.047Z,3.58
2022-10-17T13:09:31.457Z,6.13
2022-10-17T13:14:35.853Z,3.00
2022-10-17T13:19:43.675Z,3.60
2022-10-17T13:24:49.449Z,3.20
2022-10-17T13:29:53.088Z,3.25
2022-10-17T13:35:12.776Z,3.45
2022-10-17T13:40:40.751Z,2.88
2022-10-17T13:45:50.894Z,3.30
2022-10-17T13:51:00.362Z,3.38
2022-10-17T13:56:34.464Z,2.85
2022-10-17T14:01:39.608Z,3.03
2022-10-17T14:06:47.866Z,3.40
2022-10-17T14:12:02.994Z,3.65
2022-10-17T14:17:14.785Z,3.80
2022-10-17T14:22:25.549Z,3.83
2022-10-17T14:27:34.580Z,3.90
2022-10-17T14:32:39.118Z,3.50
2022-10-17T14:37:46.043Z,4.43
2022-10-17T14:42:52.108Z,4.05
2022-10-17T14:47:58.557Z,4.63
2022-10-17T14:53:05.372Z,4.60
2022-10-17T14:58:23.148Z,4.63
2022-10-17T15:03:27.217Z,5.20
2022-10-17T15:08:30.672Z,5.23
2022-10-17T15:13:41.020Z,5.27
2022-10-17T15:18:45.592Z,5.93
2022-10-17T15:23:49.107Z,5.10
2022-10-17T15:28:54.780Z,12.07
2022-10-17T15:33:58.436Z,9.20
2022-10-17T15:39:03.316Z,7.17
2022-10-17T15:44:08.798Z,7.83
2022-10-17T15:49:14.867Z,6.83
2022-10-17T15:54:18.252Z,6.77
2022-10-17T15:59:26.241Z,6.70
2022-10-17T16:04:30.732Z,6.30
2022-10-17T16:09:34.448Z,7.00
2022-10-17T16:14:39.238Z,21.27
2022-10-17T16:19:42.807Z,46.07
2022-10-17T16:24:46.481Z,38.42
2022-10-17T16:29:51.265Z,17.43
2022-10-17T16:34:54.711Z,12.43
2022-10-17T16:39:58.135Z,9.97
2022-10-17T16:45:03.516Z,10.30
2022-10-17T16:50:07.922Z,9.13
2022-10-17T16:55:12.072Z,9.60
2022-10-17T17:00:18.287Z,10.17
2022-10-17T17:05:21.646Z,11.10
2022-10-17T17:10:24.997Z,11.50
2022-10-17T17:15:29.800Z,13.30
2022-10-17T17:20:34.980Z,13.40
2022-10-17T17:25:39.465Z,12.93
2022-10-17T17:30:44.202Z,10.00
2022-10-17T17:35:47.633Z,9.20
2022-10-17T17:40:51.893Z,10.27
2022-10-17T17:45:57.018Z,9.67
2022-10-17T17:51:04.503Z,8.70
2022-10-17T17:56:10.266Z,8.73
2022-10-17T18:01:20.439Z,8.97
2022-10-17T18:06:24.250Z,9.07
2022-10-17T18:11:28.921Z,10.13
2022-10-17T18:16:35.423Z,10.50
2022-10-17T18:21:39.179Z,11.53
2022-10-17T18:26:42.556Z,11.13
2022-10-17T18:31:47.781Z,10.30
2022-10-17T18:36:52.894Z,9.53
2022-10-17T18:41:56.331Z,10.23
2022-10-17T18:47:04.100Z,8.90
2022-10-17T18:52:08.058Z,10.07
2022-10-17T18:57:11.400Z,9.70
2022-10-17T19:02:16.154Z,8.23
2022-10-17T19:07:20.262Z,10.07
2022-10-17T19:12:23.639Z,9.50
2022-10-17T19:17:28.780Z,8.40
2022-10-17T19:22:33.250Z,9.13
2022-10-17T19:27:37.602Z,9.23
2022-10-17T19:32:42.474Z,10.47
2022-10-17T19:37:46.109Z,10.53
2022-10-17T19:42:49.703Z,10.47
2022-10-17T19:47:54.504Z,11.27
2022-10-17T19:52:57.911Z,11.63
2022-10-17T19:58:02.803Z,11.00
2022-10-17T20:03:07.541Z,11.93
2022-10-17T20:08:10.949Z,11.83
2022-10-17T20:13:15.238Z,13.70
2022-10-17T20:18:20.316Z,11.87
2022-10-17T20:23:24.100Z,12.00
2022-10-17T20:28:27.742Z,12.17
2022-10-17T20:33:32.855Z,11.03
2022-10-17T20:38:36.868Z,10.40
2022-10-17T20:43:40.523Z,11.70
2022-10-17T20:48:45.377Z,10.63
2022-10-17T20:53:49.326Z,11.37
2022-10-17T20:58:54.731Z,9.47
2022-10-17T21:04:10.606Z,9.30
2022-10-17T21:09:23.501Z,10.03
2022-10-17T21:14:26.991Z,9.20
2022-10-17T21:19:31.789Z,9.43
2022-10-17T21:24:35.196Z,9.53
2022-10-17T21:29:38.491Z,9.30
2022-10-17T21:34:43.570Z,9.67
2022-10-17T21:39:46.961Z,9.83
2022-10-17T21:44:50.702Z,9.73
2022-10-17T21:49:56.206Z,10.17
2022-10-17T21:54:59.811Z,9.53
2022-10-17T22:00:03.264Z,9.03
2022-10-17T22:05:17.581Z,9.20
2022-10-17T22:10:20.977Z,9.10
2022-10-17T22:15:24.690Z,8.90
2022-10-17T22:20:29.553Z,10.67
2022-10-17T22:25:33.044Z,13.57
2022-10-17T22:30:36.765Z,15.73
2022-10-17T22:35:41.968Z,12.20
2022-10-17T22:40:46.303Z,13.67
2022-10-17T22:45:56.728Z,13.00
2022-10-17T22:51:01.906Z,11.97
2022-10-17T22:56:08.467Z,11.83
2022-10-17T23:01:16.152Z,13.40
2022-10-17T23:06:22.192Z,14.53
2022-10-17T23:11:25.647Z,13.90
2022-10-17T23:16:29.016Z,15.73
2022-10-17T23:21:34.078Z,14.87
2022-10-17T23:26:37.477Z,14.83
2022-10-17T23:31:41.135Z,15.00
2022-10-17T23:36:45.913Z,12.40
2022-10-17T23:41:49.297Z,10.70
2022-10-17T23:46:52.657Z,9.40
2022-10-17T23:51:57.391Z,9.13
2022-10-17T23:57:00.778Z,9.43
